Terminal Aerodrome Forecast
Issued by NWS

Home | Current Version | Previous Version | Text Only | Print | Product List | Glossary On
Versions: 1 2 3 4 5 6 7 8 9 10 11 12 13 14 15 16 17 18 19 20
000
FTUS43 KGRR 262340
TAFAZO
TAF
KAZO 262340Z 2700/2724 20015KT P6SM VCSH BKN050
     FM270600 22011KT 6SM BR OVC070
     FM271400 25014G24KT P6SM BKN035=

USA.gov is the U.S. government's official web portal to all federal, state and local government web resources and services.